Time;durP1;ratioP1;P1;durP2;ratioP2;P2;SDS_P1;SDS_P2;PMS_P1;PMS_P2;Temp;Humidity;BMP_temperature;BMP_pressure;BME280_temperature;BME280_humidity;BME280_pressure;Samples;Min_cycle;Max_cycle;Signal;HPM_P1;HPM_P2
2021/09/06 00:00:42;;;;;;;1999.90;999.90;;;19.20;99.90;;;;;;5015913;28;20166;-87
2021/09/06 00:03:07;;;;;;;1999.90;999.90;;;19.10;99.90;;;;;;5016635;28;20193;-87
2021/09/06 00:05:33;;;;;;;1999.90;999.90;;;19.10;99.90;;;;;;5016815;28;20417;-87
2021/09/06 00:08:02;;;;;;;1999.90;999.90;;;19.10;99.90;;;;;;5017113;28;20171;-87
2021/09/06 00:10:40;;;;;;;1999.90;999.90;;;19.00;99.90;;;;;;5016251;28;20683;-87
2021/09/06 00:13:07;;;;;;;1999.90;999.90;;;19.00;99.90;;;;;;5014979;28;20412;-87
2021/09/06 00:15:35;;;;;;;1999.90;999.90;;;19.00;99.90;;;;;;5015856;28;20405;-87
2021/09/06 00:18:02;;;;;;;1999.90;999.90;;;19.00;99.90;;;;;;5015227;28;20420;-87
2021/09/06 00:20:29;;;;;;;1999.90;999.90;;;19.00;99.90;;;;;;5015876;28;20912;-87
2021/09/06 00:22:54;;;;;;;1999.90;999.90;;;18.90;99.90;;;;;;5016041;28;20409;-88
2021/09/06 00:25:20;;;;;;;1999.90;999.90;;;18.90;99.90;;;;;;5014712;28;20412;-87
2021/09/06 00:27:46;;;;;;;1999.90;999.90;;;18.90;99.90;;;;;;5013787;28;20201;-87
2021/09/06 00:30:12;;;;;;;1999.90;999.90;;;18.80;99.90;;;;;;5014232;28;20817;-87
2021/09/06 00:32:42;;;;;;;1999.90;999.90;;;18.80;99.90;;;;;;5014804;28;20444;-87
2021/09/06 00:35:08;;;;;;;1999.90;999.90;;;18.80;99.90;;;;;;5014970;28;20520;-87
2021/09/06 00:37:34;;;;;;;1999.90;999.90;;;18.80;99.90;;;;;;5014093;28;20425;-87
2021/09/06 00:40:03;;;;;;;1999.90;999.90;;;18.70;99.90;;;;;;5015161;28;20457;-87
2021/09/06 00:42:29;;;;;;;1999.90;999.90;;;18.70;99.90;;;;;;5013751;28;20710;-87
2021/09/06 00:44:54;;;;;;;1999.90;999.90;;;18.70;99.90;;;;;;5014690;28;20428;-87
2021/09/06 00:47:20;;;;;;;1999.90;999.90;;;18.60;99.90;;;;;;5014968;28;20188;-87
2021/09/06 00:49:46;;;;;;;1999.90;999.90;;;18.60;99.90;;;;;;5014151;28;20190;-87
2021/09/06 00:52:12;;;;;;;1999.90;999.90;;;18.60;99.90;;;;;;5014683;28;20435;-87
2021/09/06 00:54:41;;;;;;;1999.90;999.90;;;18.60;99.90;;;;;;5014625;28;20171;-87
2021/09/06 00:57:14;;;;;;;1999.90;999.90;;;18.60;99.90;;;;;;5015181;28;20546;-87
2021/09/06 00:59:39;;;;;;;1999.90;999.90;;;18.60;99.90;;;;;;5013428;28;20430;-87
2021/09/06 01:02:05;;;;;;;1999.90;999.90;;;18.50;99.90;;;;;;5014783;28;20992;-87
2021/09/06 01:04:31;;;;;;;1999.90;999.90;;;18.50;99.90;;;;;;5014816;28;20252;-87
2021/09/06 01:06:57;;;;;;;1999.90;999.90;;;18.50;99.90;;;;;;5014804;28;20194;-87
2021/09/06 01:09:22;;;;;;;1999.90;999.90;;;18.50;99.90;;;;;;5013180;28;20201;-87
2021/09/06 01:11:51;;;;;;;1999.90;999.90;;;18.50;99.90;;;;;;5013541;28;20413;-87
2021/09/06 01:14:16;;;;;;;1999.90;999.90;;;18.50;99.90;;;;;;5014360;28;20166;-87
2021/09/06 01:16:42;;;;;;;1999.90;999.90;;;18.40;99.90;;;;;;5014872;28;20504;-87
2021/09/06 01:19:24;;;;;;;1999.90;999.90;;;18.40;99.90;;;;;;5014280;28;20177;-87
2021/09/06 01:21:50;;;;;;;1999.90;999.90;;;18.40;99.90;;;;;;5013416;28;20416;-87
2021/09/06 01:24:17;;;;;;;1999.90;999.90;;;18.30;99.90;;;;;;5013321;28;20776;-87
2021/09/06 01:26:45;;;;;;;1999.90;999.90;;;18.30;99.90;;;;;;5013162;28;20432;-87
2021/09/06 01:29:11;;;;;;;1999.90;999.90;;;18.30;99.90;;;;;;5012740;28;20452;-87
2021/09/06 01:31:39;;;;;;;1999.90;999.90;;;18.30;99.90;;;;;;5014299;28;20436;-88
2021/09/06 01:34:07;;;;;;;1999.90;999.90;;;18.20;99.90;;;;;;5014315;28;20177;-87
2021/09/06 01:36:33;;;;;;;1999.90;999.90;;;18.20;99.90;;;;;;5015864;28;20424;-87
2021/09/06 01:38:58;;;;;;;1999.90;999.90;;;18.20;99.90;;;;;;5016823;28;20416;-87
2021/09/06 01:41:24;;;;;;;1999.90;999.90;;;18.20;99.90;;;;;;5016753;28;20174;-87
2021/09/06 01:43:50;;;;;;;1999.90;999.90;;;18.20;99.90;;;;;;5018039;28;20166;-87
2021/09/06 01:46:16;;;;;;;1999.90;999.90;;;18.10;99.90;;;;;;5017762;28;20190;-87
2021/09/06 01:48:41;;;;;;;1999.90;999.90;;;18.10;99.90;;;;;;5017848;28;20163;-87
2021/09/06 01:51:07;;;;;;;1999.90;999.90;;;18.10;99.90;;;;;;5018044;28;20190;-88
2021/09/06 01:53:33;;;;;;;1999.90;999.90;;;18.10;99.90;;;;;;5018698;28;20163;-88
2021/09/06 01:55:58;;;;;;;1999.90;999.90;;;18.00;99.90;;;;;;5016725;28;20190;-87
2021/09/06 01:58:24;;;;;;;1999.90;999.90;;;18.00;99.90;;;;;;5018083;28;20579;-87
2021/09/06 02:00:50;;;;;;;1999.90;999.90;;;18.00;99.90;;;;;;5017621;28;20166;-87
2021/09/06 02:03:15;;;;;;;1999.90;999.90;;;18.00;99.90;;;;;;5017906;28;20173;-87
2021/09/06 02:05:41;;;;;;;1999.90;999.90;;;18.00;99.90;;;;;;5017332;28;20514;-87
2021/09/06 02:08:07;;;;;;;1999.90;999.90;;;17.90;99.90;;;;;;5016740;28;20176;-87
2021/09/06 02:10:33;;;;;;;1999.90;999.90;;;17.90;99.90;;;;;;5017472;28;20542;-87
2021/09/06 02:12:58;;;;;;;1999.90;999.90;;;17.90;99.90;;;;;;5016930;28;20217;-87
2021/09/06 02:15:24;;;;;;;1999.90;999.90;;;17.90;99.90;;;;;;5017698;28;20580;-87
2021/09/06 02:17:50;;;;;;;1999.90;999.90;;;17.90;99.90;;;;;;5017141;28;20570;-87
2021/09/06 02:20:15;;;;;;;1999.90;999.90;;;17.80;99.90;;;;;;5000196;28;20176;-87
2021/09/06 02:22:41;;;;;;;1999.90;999.90;;;17.80;99.90;;;;;;5016888;28;20162;-87
2021/09/06 02:25:07;;;;;;;1999.90;999.90;;;17.80;99.90;;;;;;5016327;28;20232;-87
2021/09/06 02:27:33;;;;;;;1999.90;999.90;;;17.80;99.90;;;;;;5016903;28;20186;-87
2021/09/06 02:29:59;;;;;;;1999.90;999.90;;;17.70;99.90;;;;;;5016689;28;20792;-87
2021/09/06 02:32:25;;;;;;;1999.90;999.90;;;17.70;99.90;;;;;;5017110;28;20176;-87
2021/09/06 02:34:50;;;;;;;1999.90;999.90;;;17.60;99.90;;;;;;5015631;28;20186;-87
2021/09/06 02:37:16;;;;;;;1999.90;999.90;;;17.70;99.90;;;;;;5016953;28;20220;-87
2021/09/06 02:39:42;;;;;;;1999.90;999.90;;;17.60;99.90;;;;;;5015598;28;20170;-87
2021/09/06 02:42:08;;;;;;;1999.90;999.90;;;17.60;99.90;;;;;;5016730;28;20475;-87
2021/09/06 02:44:34;;;;;;;1999.90;999.90;;;17.60;99.90;;;;;;5017568;28;20162;-87
2021/09/06 02:46:59;;;;;;;1999.90;999.90;;;17.60;99.90;;;;;;5016860;28;20190;-87
2021/09/06 02:49:25;;;;;;;1999.90;999.90;;;17.60;99.90;;;;;;5015644;28;20182;-86
2021/09/06 02:51:51;;;;;;;1999.90;999.90;;;17.60;99.90;;;;;;5015200;28;20308;-87
2021/09/06 02:54:17;;;;;;;1999.90;999.90;;;17.50;99.90;;;;;;5015074;28;20641;-87
2021/09/06 02:56:44;;;;;;;1999.90;999.90;;;17.50;99.90;;;;;;5016235;28;20443;-87
2021/09/06 02:59:10;;;;;;;1999.90;999.90;;;17.50;99.90;;;;;;5016768;28;20482;-87
2021/09/06 03:01:35;;;;;;;1999.90;999.90;;;17.50;99.90;;;;;;5014943;28;20868;-87
2021/09/06 03:04:02;;;;;;;1999.90;999.90;;;17.50;99.90;;;;;;5016253;28;20162;-87
2021/09/06 03:06:27;;;;;;;1999.90;999.90;;;17.40;99.90;;;;;;5014598;28;20432;-87
2021/09/06 03:08:53;;;;;;;1999.90;999.90;;;17.40;99.90;;;;;;5015886;28;20409;-87
2021/09/06 03:11:23;;;;;;;1999.90;999.90;;;17.40;99.90;;;;;;5015878;28;20193;-87
2021/09/06 03:13:52;;;;;;;1999.90;999.90;;;17.40;99.90;;;;;;5014960;28;20178;-87
2021/09/06 03:16:22;;;;;;;1999.90;999.90;;;17.40;99.90;;;;;;5016057;28;20812;-87
2021/09/06 03:18:48;;;;;;;1999.90;999.90;;;17.40;99.90;;;;;;5016857;28;20810;-87
2021/09/06 03:21:18;;;;;;;1999.90;999.90;;;17.30;99.90;;;;;;5014564;28;20409;-87
2021/09/06 03:23:43;;;;;;;1999.90;999.90;;;17.30;99.90;;;;;;5014577;28;21009;-87
2021/09/06 03:26:09;;;;;;;1999.90;999.90;;;17.30;99.90;;;;;;5016080;28;20429;-87
2021/09/06 03:28:35;;;;;;;1999.90;999.90;;;17.30;99.90;;;;;;5014659;28;20268;-87
2021/09/06 03:31:01;;;;;;;1999.90;999.90;;;17.20;99.90;;;;;;5014582;28;20532;-87
2021/09/06 03:36:21;;;;;;;1999.90;999.90;;;17.20;99.90;;;;;;5032729;22;20489;-91
2021/09/06 03:39:01;;;;;;;1999.90;999.90;;;17.20;99.90;;;;;;4979500;28;20897;-91
2021/09/06 03:41:33;;;;;;;1999.90;999.90;;;17.20;99.90;;;;;;4996574;28;20885;-91
2021/09/06 03:47:49;;;;;;;1999.90;999.90;;;17.10;99.90;;;;;;4971999;28;20509;-91
2021/09/06 03:50:19;;;;;;;1999.90;999.90;;;17.10;99.90;;;;;;4937954;28;20454;-91
2021/09/06 03:52:53;;;;;;;1999.90;999.90;;;17.10;99.90;;;;;;4995663;28;20494;-91
2021/09/06 03:55:38;;;;;;;1999.90;999.90;;;17.00;99.90;;;;;;4979302;28;20869;-91
2021/09/06 03:58:19;;;;;;;1999.90;999.90;;;17.10;99.90;;;;;;4978886;28;20398;-91
2021/09/06 04:01:15;;;;;;;1999.90;999.90;;;17.00;99.90;;;;;;4978889;28;20410;-91
2021/09/06 04:04:09;;;;;;;1999.90;999.90;;;17.00;99.90;;;;;;4965665;28;20493;-91
2021/09/06 04:06:41;;;;;;;1999.90;999.90;;;16.90;99.90;;;;;;4960787;28;20433;-91
2021/09/06 04:09:09;;;;;;;1999.90;999.90;;;16.90;99.90;;;;;;4996046;28;20379;-91
2021/09/06 04:11:55;;;;;;;;;;;;;;;;;;;;;
2021/09/06 04:14:50;;;;;;;1999.90;999.90;;;16.90;99.90;;;;;;4995220;28;20405;-91
2021/09/06 04:17:25;;;;;;;1999.90;999.90;;;16.90;99.90;;;;;;4977878;28;20433;-91
2021/09/06 04:20:14;;;;;;;1999.90;999.90;;;16.90;99.90;;;;;;4995448;28;20401;-91
2021/09/06 04:22:42;;;;;;;1999.90;999.90;;;16.80;99.90;;;;;;4940777;28;20924;-91
2021/09/06 04:25:14;;;;;;;1999.90;999.90;;;16.80;99.90;;;;;;4977667;28;20428;-91
2021/09/06 04:27:58;;;;;;;1999.90;999.90;;;16.80;99.90;;;;;;4977852;28;20488;-91
2021/09/06 04:30:24;;;;;;;1999.90;999.90;;;16.80;99.90;;;;;;4995515;28;20451;-91
2021/09/06 04:35:45;;;;;;;1999.90;999.90;;;16.80;99.90;;;;;;4974472;28;20512;-91
2021/09/06 04:38:17;;;;;;;1999.90;999.90;;;16.80;99.90;;;;;;4977986;28;20410;-91
2021/09/06 04:40:43;;;;;;;1999.90;999.90;;;16.70;99.90;;;;;;4977845;28;20409;-91
2021/09/06 04:46:07;;;;;;;1999.90;999.90;;;16.70;99.90;;;;;;4994476;28;20226;-90
2021/09/06 04:48:59;;;;;;;1999.90;999.90;;;16.60;99.90;;;;;;4977736;28;20496;-91
2021/09/06 04:51:34;;;;;;;1999.90;999.90;;;16.60;99.90;;;;;;4899583;29;20462;-91
2021/09/06 04:54:18;;;;;;;;;;;;;;;;;;;;;
2021/09/06 04:56:47;;;;;;;1999.90;999.90;;;16.50;99.90;;;;;;4975558;28;20433;-91
2021/09/06 04:59:32;;;;;;;;;;;;;;;;;;;;;
2021/09/06 05:02:10;;;;;;;1999.90;999.90;;;16.60;99.90;;;;;;4953738;29;20418;-91
2021/09/06 05:04:47;;;;;;;1999.90;999.90;;;16.50;99.90;;;;;;4977722;28;20456;-91
2021/09/06 05:07:33;;;;;;;1999.90;999.90;;;16.50;99.90;;;;;;4994606;28;20426;-91
2021/09/06 05:10:06;;;;;;;1999.90;999.90;;;16.40;99.90;;;;;;4993229;28;20447;-90
2021/09/06 05:12:41;;;;;;;1999.90;999.90;;;16.40;99.90;;;;;;4995060;28;20800;-91
2021/09/06 05:19:06;;;;;;;1999.90;999.90;;;16.40;99.90;;;;;;4964455;28;20955;-91
2021/09/06 05:21:59;;;;;;;1999.90;999.90;;;16.40;99.90;;;;;;4934558;28;20482;-91
2021/09/06 05:24:28;;;;;;;1999.90;999.90;;;16.40;99.90;;;;;;4994180;28;20378;-90
2021/09/06 05:30:19;;;;;;;1999.90;999.90;;;16.40;99.90;;;;;;4938332;29;20477;-91
2021/09/06 05:33:43;;;;;;;1999.90;999.90;;;16.40;99.90;;;;;;4969610;28;20500;-91
2021/09/06 05:36:00;;;;;;;1999.90;999.90;;;16.40;99.90;;;;;;4989989;28;20461;-91
2021/09/06 05:38:52;;;;;;;1999.90;999.90;;;16.40;99.90;;;;;;4977888;28;20843;-90
2021/09/06 05:41:44;;;;;;;1999.90;999.90;;;16.40;99.90;;;;;;4976714;28;20412;-90
2021/09/06 05:44:10;;;;;;;1999.90;999.90;;;16.40;99.90;;;;;;4974806;28;20435;-88
2021/09/06 05:46:42;;;;;;;1999.90;999.90;;;16.40;99.90;;;;;;4993664;28;20422;-88
2021/09/06 05:49:07;;;;;;;1999.90;999.90;;;16.40;99.90;;;;;;4993784;28;20619;-89
2021/09/06 05:51:42;;;;;;;1999.90;999.90;;;16.50;99.90;;;;;;4994383;28;20503;-88
2021/09/06 05:54:08;;;;;;;1999.90;999.90;;;16.50;99.90;;;;;;4994296;28;20390;-88
2021/09/06 05:56:34;;;;;;;1999.90;999.90;;;16.50;99.90;;;;;;4993595;28;20421;-88
2021/09/06 05:59:00;;;;;;;1999.90;999.90;;;16.50;99.90;;;;;;4993532;28;20915;-88
2021/09/06 06:01:25;;;;;;;1999.90;999.90;;;16.50;99.90;;;;;;4993512;28;20162;-88
2021/09/06 06:03:51;;;;;;;1999.90;999.90;;;16.60;99.90;;;;;;4975966;28;20526;-88
2021/09/06 06:06:17;;;;;;;1999.90;999.90;;;16.60;99.90;;;;;;4993489;28;20601;-88
2021/09/06 06:08:44;;;;;;;1999.90;999.90;;;16.60;99.90;;;;;;4993448;28;20398;-88
2021/09/06 06:11:09;;;;;;;1999.90;999.90;;;16.60;99.90;;;;;;4975921;28;20544;-88
2021/09/06 06:13:57;;;;;;;1999.90;999.90;;;16.60;99.90;;;;;;4976122;28;20493;-88
2021/09/06 06:21:42;;;;;;;1999.90;999.90;;;16.70;99.90;;;;;;5040248;23;20475;-91
2021/09/06 06:24:10;;;;;;;1999.90;999.90;;;16.70;99.90;;;;;;5015240;28;20408;-91
2021/09/06 06:26:38;;;;;;;1999.90;999.90;;;16.80;99.90;;;;;;5017540;28;20429;-91
2021/09/06 06:29:04;;;;;;;1999.90;999.90;;;16.80;99.90;;;;;;5015797;28;20416;-91
2021/09/06 06:31:30;;;;;;;1999.90;999.90;;;16.80;99.90;;;;;;5016699;28;20454;-90
2021/09/06 06:33:58;;;;;;;1999.90;999.90;;;16.90;99.90;;;;;;5015368;28;20205;-91
2021/09/06 06:36:49;;;;;;;1999.90;999.90;;;16.90;99.90;;;;;;5016766;28;20421;-91
2021/09/06 06:39:15;;;;;;;1999.90;999.90;;;16.90;99.90;;;;;;5016588;28;20773;-90
2021/09/06 06:41:41;;;;;;;1999.90;999.90;;;16.90;99.90;;;;;;5015758;28;20429;-91
2021/09/06 06:44:07;;;;;;;1999.90;999.90;;;16.90;99.90;;;;;;5016186;28;20413;-91
2021/09/06 06:46:37;;;;;;;1999.90;999.90;;;16.90;99.90;;;;;;5015137;28;20433;-90
2021/09/06 06:49:03;;;;;;;1999.90;999.90;;;17.00;99.90;;;;;;5016861;28;20393;-91
2021/09/06 06:51:29;;;;;;;1999.90;999.90;;;17.00;99.90;;;;;;5015451;28;20532;-91
2021/09/06 06:53:57;;;;;;;1999.90;999.90;;;17.10;99.90;;;;;;5015212;28;20166;-91
2021/09/06 06:56:29;;;;;;;1999.90;999.90;;;17.10;99.90;;;;;;5017137;28;20214;-92
2021/09/06 06:58:57;;;;;;;1999.90;999.90;;;17.10;99.90;;;;;;5015452;28;20413;-91
2021/09/06 07:01:34;;;;;;;1999.90;999.90;;;17.10;99.90;;;;;;5016630;28;20440;-92
2021/09/06 07:04:04;;;;;;;1999.90;999.90;;;17.10;99.90;;;;;;5015130;28;20426;-91
2021/09/06 07:06:30;;;;;;;1999.90;999.90;;;17.20;99.90;;;;;;5014841;28;20557;-91
2021/09/06 07:08:56;;;;;;;1999.90;999.90;;;17.20;99.90;;;;;;5016145;28;20485;-91
2021/09/06 07:11:21;;;;;;;1999.90;999.90;;;17.30;99.90;;;;;;5014981;28;20200;-91
2021/09/06 07:13:50;;;;;;;1999.90;999.90;;;17.30;99.90;;;;;;5015125;28;20177;-91
2021/09/06 07:16:16;;;;;;;1999.90;999.90;;;17.30;99.90;;;;;;5014531;28;20205;-92
2021/09/06 07:18:45;;;;;;;1999.90;999.90;;;17.30;99.90;;;;;;5016361;28;20461;-91
2021/09/06 07:21:12;;;;;;;1999.90;999.90;;;17.40;99.90;;;;;;5015033;28;20784;-92
2021/09/06 07:23:37;;;;;;;1999.90;999.90;;;17.40;99.90;;;;;;5014793;28;20418;-91
2021/09/06 07:26:06;;;;;;;1999.90;999.90;;;17.40;99.90;;;;;;5014682;28;20429;-91
2021/09/06 07:28:34;;;;;;;1999.90;999.90;;;17.50;99.90;;;;;;5016696;28;20405;-91
2021/09/06 07:31:00;;;;;;;1999.90;999.90;;;17.50;99.90;;;;;;5014337;28;20931;-88
2021/09/06 07:33:29;;;;;;;1999.90;999.90;;;17.50;99.90;;;;;;5014235;28;20475;-91
2021/09/06 07:36:06;;;;;;;1999.90;999.90;;;17.50;99.90;;;;;;5017623;28;20179;-92
2021/09/06 07:38:32;;;;;;;1999.90;999.90;;;17.40;99.90;;;;;;5016493;28;20408;-91
2021/09/06 07:41:07;;;;;;;1999.90;999.90;;;17.30;99.90;;;;;;5016499;28;20904;-91
2021/09/06 07:43:35;;;;;;;1999.90;999.90;;;17.50;99.90;;;;;;5016791;28;20488;-92
2021/09/06 07:46:01;;;;;;;1999.90;999.90;;;17.50;99.90;;;;;;5016124;28;20788;-91
2021/09/06 07:48:27;;;;;;;1999.90;999.90;;;17.50;99.90;;;;;;5015125;28;20423;-91
2021/09/06 07:51:13;;;;;;;1999.90;999.90;;;17.50;99.90;;;;;;5016150;28;20454;-91
2021/09/06 07:53:40;;;;;;;1999.90;999.90;;;17.60;99.90;;;;;;5015783;28;20158;-92
2021/09/06 07:56:12;;;;;;;1999.90;999.90;;;17.60;99.90;;;;;;5015863;28;20432;-92
2021/09/06 07:58:46;;;;;;;1999.90;999.90;;;17.70;99.90;;;;;;5015159;28;20424;-93
2021/09/06 08:01:12;;;;;;;1999.90;999.90;;;17.70;99.90;;;;;;5017767;28;20476;-92
2021/09/06 08:03:56;;;;;;;1999.90;999.90;;;17.80;99.90;;;;;;5016561;28;20416;-92
2021/09/06 08:06:31;;;;;;;1999.90;999.90;;;17.80;99.90;;;;;;5015952;28;20432;-92
2021/09/06 08:09:05;;;;;;;1999.90;999.90;;;17.90;99.90;;;;;;5015009;28;20405;-92
2021/09/06 08:11:37;;;;;;;1999.90;999.90;;;17.90;99.90;;;;;;5015221;28;20460;-92
2021/09/06 08:14:24;;;;;;;;;;;;;;;;;;;;;
2021/09/06 08:16:53;;;;;;;1999.90;999.90;;;18.20;99.90;;;;;;5016117;28;21019;-92
2021/09/06 08:19:29;;;;;;;1999.90;999.90;;;18.20;99.90;;;;;;5015138;28;20459;-92
2021/09/06 08:21:58;;;;;;;1999.90;999.90;;;18.20;99.90;;;;;;5015616;28;20500;-92
2021/09/06 08:24:30;;;;;;;1999.90;999.90;;;18.30;99.90;;;;;;5014894;28;20413;-92
2021/09/06 08:26:56;;;;;;;1999.90;999.90;;;18.30;99.90;;;;;;5014531;28;20435;-92
2021/09/06 08:29:22;;;;;;;1999.90;999.90;;;18.40;99.90;;;;;;5014342;28;20475;-92
2021/09/06 08:32:22;;;;;;;1999.90;999.90;;;18.30;99.90;;;;;;5014400;28;20460;-92
2021/09/06 08:34:40;;;;;;;1999.90;999.90;;;18.40;99.90;;;;;;5014396;28;20190;-92
2021/09/06 08:37:09;;;;;;;1999.90;999.90;;;18.50;99.90;;;;;;5013964;28;21030;-92
2021/09/06 08:39:47;;;;;;;1999.90;999.90;;;18.60;99.90;;;;;;5014789;28;20417;-93
2021/09/06 08:42:29;;;;;;;1999.90;999.90;;;18.60;99.90;;;;;;5015373;28;20431;-92
2021/09/06 08:44:58;;;;;;;1999.90;999.90;;;18.70;99.90;;;;;;5014619;28;20409;-92
2021/09/06 08:47:33;;;;;;;1999.90;999.90;;;18.80;99.90;;;;;;5016108;28;20427;-92
2021/09/06 08:50:25;;;;;;;1999.90;999.90;;;18.90;99.90;;;;;;5015420;28;20959;-93
2021/09/06 08:53:00;;;;;;;1999.90;999.90;;;18.90;99.90;;;;;;5010267;28;20420;-93
2021/09/06 08:55:27;;;;;;;1999.90;999.90;;;19.00;99.90;;;;;;5014053;28;20938;-92
2021/09/06 08:58:19;;;;;;;1999.90;999.90;;;19.00;99.90;;;;;;5015386;28;20456;-92
2021/09/06 09:00:54;;;;;;;1999.90;999.90;;;19.10;99.90;;;;;;4959049;28;20415;-92
2021/09/06 09:03:20;;;;;;;1999.90;999.90;;;19.20;99.90;;;;;;4959769;28;20410;-91
2021/09/06 09:06:05;;;;;;;1999.90;999.90;;;19.20;99.90;;;;;;5004189;28;20498;-92
2021/09/06 09:10:09;;;;;;;1999.90;999.90;;;19.30;99.90;;;;;;5018608;28;20476;-92
2021/09/06 09:12:23;;;;;;;1999.90;999.90;;;19.40;99.90;;;;;;5020738;28;20447;-92
2021/09/06 09:15:10;;;;;;;1999.90;999.90;;;19.50;99.90;;;;;;5014779;28;20504;-92
2021/09/06 09:18:20;;;;;;;1999.90;999.90;;;19.60;99.90;;;;;;5020149;28;20428;-92
2021/09/06 09:21:17;;;;;;;1999.90;999.90;;;19.80;99.90;;;;;;5018613;28;20464;-92
2021/09/06 09:24:21;;;;;;;1999.90;999.90;;;19.90;99.90;;;;;;5014654;28;20790;-92
2021/09/06 09:27:37;;;;;;;1999.90;999.90;;;20.00;99.90;;;;;;5012365;28;20441;-92
2021/09/06 09:30:35;;;;;;;;;;;;;;;;;;;;;
2021/09/06 09:33:19;;;;;;;1999.90;999.90;;;20.30;99.90;;;;;;4996768;28;20417;-93
2021/09/06 09:35:57;;;;;;;1999.90;999.90;;;20.40;99.90;;;;;;5113785;22;20486;-88
2021/09/06 09:38:34;;;;;;;1999.90;999.90;;;20.50;99.90;;;;;;5016905;28;20953;-88
2021/09/06 09:41:00;;;;;;;1999.90;999.90;;;20.70;99.90;;;;;;5015176;28;20473;-88
2021/09/06 09:43:32;;;;;;;1999.90;999.90;;;20.80;99.90;;;;;;5016594;28;20461;-88
2021/09/06 09:46:56;;;;;;;1999.90;999.90;;;20.90;99.90;;;;;;5015808;28;20514;-88
2021/09/06 09:49:31;;;;;;;1999.90;999.90;;;21.10;99.90;;;;;;5005689;28;20419;-88
2021/09/06 09:51:57;;;;;;;1999.90;999.90;;;21.20;99.90;;;;;;5013961;28;20412;-88
2021/09/06 09:54:23;;;;;;;1999.90;999.90;;;21.30;99.90;;;;;;5014763;28;20403;-88
2021/09/06 09:56:49;;;;;;;1999.90;999.90;;;21.40;99.90;;;;;;5015176;28;20422;-88
2021/09/06 09:59:16;;;;;;;1999.90;999.90;;;21.60;99.90;;;;;;5018624;28;20957;-88
2021/09/06 10:02:10;;;;;;;1999.90;999.90;;;21.80;99.90;;;;;;5018301;28;20414;-87
2021/09/06 10:05:03;;;;;;;1999.90;999.90;;;22.00;99.90;;;;;;5018071;28;20404;-88
2021/09/06 10:07:34;;;;;;;1999.90;999.90;;;22.20;99.90;;;;;;5012287;28;20433;-87
2021/09/06 10:10:22;;;;;;;;;;;;;;;;;;;;;
2021/09/06 10:13:08;;;;;;;1999.90;999.90;;;22.50;99.90;;;;;;5017544;28;20446;-88
2021/09/06 10:15:38;;;;;;;1999.90;999.90;;;22.70;99.90;;;;;;5020061;28;20892;-88
2021/09/06 10:18:21;;;;;;;1999.90;999.90;;;22.80;99.90;;;;;;5017754;28;20417;-88
2021/09/06 10:21:01;;;;;;;1999.90;999.90;;;22.90;99.90;;;;;;5018012;28;20416;-87
2021/09/06 10:23:42;;;;;;;1999.90;999.90;;;22.90;99.90;;;;;;5017705;28;20432;-87
2021/09/06 10:26:19;;;;;;;1999.90;999.90;;;23.10;99.90;;;;;;5018022;28;20782;-88
2021/09/06 10:29:08;;;;;;;1999.90;999.90;;;22.90;99.90;;;;;;5018232;28;20443;-88
2021/09/06 10:31:38;;;;;;;1999.90;999.90;;;23.00;99.90;;;;;;5019364;28;20540;-88
2021/09/06 10:34:07;;;;;;;1999.90;999.90;;;23.10;99.90;;;;;;5019351;28;20483;-88
2021/09/06 10:36:32;;;;;;;1999.90;999.90;;;23.50;99.90;;;;;;5019671;28;20452;-89
2021/09/06 10:39:06;;;;;;;1999.90;999.90;;;23.70;99.90;;;;;;5017990;28;20416;-89
2021/09/06 10:42:07;;;;;;;1999.90;999.90;;;23.90;99.90;;;;;;5017451;28;20529;-88
2021/09/06 10:44:39;;;;;;;1999.90;999.90;;;23.90;99.90;;;;;;5017704;28;20412;-89
2021/09/06 10:47:26;;;;;;;1999.90;999.90;;;24.10;99.90;;;;;;5017983;28;20425;-88
2021/09/06 10:49:55;;;;;;;1999.90;999.90;;;24.30;99.90;;;;;;5018658;28;20440;-88
2021/09/06 10:52:24;;;;;;;1999.90;999.90;;;24.50;98.30;;;;;;5020985;28;20405;-88
2021/09/06 10:54:50;;;;;;;1999.90;999.90;;;24.60;96.50;;;;;;5017815;28;20390;-87
2021/09/06 10:57:16;;;;;;;1999.90;999.90;;;24.80;93.60;;;;;;5018203;28;20503;-87
2021/09/06 10:59:45;;;;;;;1999.90;999.90;;;24.90;90.30;;;;;;5016044;28;20170;-87
2021/09/06 11:02:11;;;;;;;1999.90;999.90;;;25.00;89.60;;;;;;5016000;28;20221;-87
2021/09/06 11:04:39;;;;;;;1999.90;999.90;;;25.10;90.10;;;;;;5016822;28;20409;-87
2021/09/06 11:07:07;;;;;;;1999.90;999.90;;;25.30;84.40;;;;;;5014772;28;20576;-87
2021/09/06 11:09:37;;;;;;;1999.90;999.90;;;25.40;79.90;;;;;;5018588;28;20776;-87
2021/09/06 11:12:06;;;;;;;1999.90;999.90;;;25.40;77.00;;;;;;5018434;28;20410;-88
2021/09/06 11:14:53;;;;;;;1999.90;999.90;;;25.50;70.90;;;;;;5016196;28;20404;-87
2021/09/06 11:18:16;;;;;;;1999.90;999.90;;;25.40;78.30;;;;;;4986466;28;20943;-88
2021/09/06 11:20:26;;;;;;;1999.90;999.90;;;25.60;57.80;;;;;;5010876;28;20408;-88
2021/09/06 11:26:33;;;;;;;1999.90;999.90;;;25.90;65.40;;;;;;5015923;28;20428;-88
2021/09/06 11:29:07;;;;;;;1999.90;999.90;;;26.10;62.60;;;;;;5015666;28;20496;-88
2021/09/06 11:31:35;;;;;;;1999.90;999.90;;;26.10;44.20;;;;;;5017457;28;20488;-88
2021/09/06 11:34:05;;;;;;;1999.90;999.90;;;26.20;41.20;;;;;;5016091;28;20405;-88
2021/09/06 11:36:32;;;;;;;1999.90;999.90;;;26.20;47.00;;;;;;5015263;28;20539;-88
2021/09/06 11:39:37;;;;;;;1999.90;999.90;;;26.30;51.00;;;;;;5016593;28;20412;-88
2021/09/06 11:42:12;;;;;;;1999.90;999.90;;;26.30;39.20;;;;;;5017113;28;20821;-88
2021/09/06 11:44:43;;;;;;;1999.90;999.90;;;26.30;39.30;;;;;;5016706;28;20384;-88
2021/09/06 11:47:28;;;;;;;1999.90;999.90;;;26.40;42.10;;;;;;5015030;28;20542;-88
2021/09/06 11:49:58;;;;;;;1999.90;999.90;;;26.50;42.40;;;;;;5015625;28;20538;-88
2021/09/06 11:52:36;;;;;;;1999.90;999.90;;;26.60;37.80;;;;;;5015876;28;20424;-88
2021/09/06 11:56:05;;;;;;;1999.90;999.90;;;26.60;38.10;;;;;;5017606;28;20398;-88
2021/09/06 11:58:32;;;;;;;1999.90;999.90;;;26.40;28.40;;;;;;5013032;28;20412;-88
2021/09/06 12:01:09;;;;;;;1999.90;999.90;;;26.40;32.50;;;;;;5016283;28;20436;-88
2021/09/06 12:03:50;;;;;;;1999.90;999.90;;;26.30;29.50;;;;;;5016729;28;20416;-88
2021/09/06 12:06:28;;;;;;;1999.90;999.90;;;26.30;25.70;;;;;;5016796;28;20432;-88
2021/09/06 12:09:11;;;;;;;1999.90;999.90;;;26.20;35.40;;;;;;5015095;28;20531;-88
2021/09/06 12:11:42;;;;;;;1999.90;999.90;;;26.20;40.10;;;;;;5014021;28;20453;-88
2021/09/06 12:14:10;;;;;;;1999.90;999.90;;;26.20;30.90;;;;;;5016474;28;20385;-87
2021/09/06 12:16:37;;;;;;;1999.90;999.90;;;26.00;47.00;;;;;;5016877;28;20424;-87
2021/09/06 12:19:19;;;;;;;1999.90;999.90;;;25.70;37.20;;;;;;5017308;28;20408;-87
2021/09/06 12:21:46;;;;;;;1999.90;999.90;;;25.60;40.40;;;;;;5017281;28;20554;-86
2021/09/06 12:24:12;;;;;;;1999.90;999.90;;;25.70;50.70;;;;;;5017583;28;20919;-87
2021/09/06 12:26:39;;;;;;;1999.90;999.90;;;25.70;44.20;;;;;;5016683;28;20435;-87
2021/09/06 12:29:05;;;;;;;1999.90;999.90;;;25.70;49.60;;;;;;5015642;28;20337;-87
2021/09/06 12:31:43;;;;;;;1999.90;999.90;;;25.80;50.00;;;;;;5015643;28;20491;-87
2021/09/06 12:34:13;;;;;;;1999.90;999.90;;;25.90;40.90;;;;;;5016056;28;20181;-87
2021/09/06 12:36:41;;;;;;;1999.90;999.90;;;26.10;42.40;;;;;;5017662;28;20434;-88
2021/09/06 12:39:07;;;;;;;1999.90;999.90;;;26.10;43.90;;;;;;5018006;28;20471;-87
2021/09/06 12:41:33;;;;;;;1999.90;999.90;;;26.30;39.50;;;;;;5016086;28;20509;-87
2021/09/06 12:43:59;;;;;;;1999.90;999.90;;;26.50;47.30;;;;;;5016239;28;20177;-88
2021/09/06 12:46:27;;;;;;;1999.90;999.90;;;26.70;37.70;;;;;;5019632;28;20669;-87
2021/09/06 12:48:53;;;;;;;1999.90;999.90;;;26.90;22.70;;;;;;5022952;28;20476;-87
2021/09/06 12:51:21;;;;;;;1999.90;999.90;;;26.90;23.00;;;;;;5022753;28;20518;-87
2021/09/06 12:53:47;;;;;;;1999.90;999.90;;;27.00;25.80;;;;;;5018366;28;20166;-87
2021/09/06 12:56:13;;;;;;;1999.90;999.90;;;27.20;15.90;;;;;;5019588;28;20459;-88
2021/09/06 12:58:38;;;;;;;1999.90;999.90;;;27.20;10.80;;;;;;5017636;28;20637;-87
2021/09/06 13:01:04;;;;;;;1999.90;999.90;;;27.20;7.50;;;;;;5017235;28;20181;-87